KROC/ROC METAR and TAF weather

Enter ICAO airport designator
Station Type Date Time Source
KROC METAR 2020/12/05 05:54 UTC NOAA

KROC 050554Z 27005KT 7SM FEW039 OVC060 02/01 A2988 RMK AO2 SLP125 60001 T00220011 10039 20017 58007


Station Type Date Time Source
KROC Decoded METAR 2020/12/05 05:54 UTC NOAA

GREATER ROCHESTER INTERNATIONAL , NY, United States (KROC) 43-07N 077-41W 178M
Dec 05, 2020 - 12:54 AM EST / 2020.12.05 0554 UTC
Wind: from the W (270 degrees) at 6 MPH (5 KT):0
Visibility: 7 mile(s):0
Sky conditions: overcast
Temperature: 36.0 F (2.2 C)
Dew Point: 34.0 F (1.1 C)
Relative Humidity: 92%
Pressure (altimeter): 29.88 in. Hg (1011 hPa)
Pressure tendency: 0.02 inches (0.7 hPa) lower than three hours ago
ob: KROC 050554Z 27005KT 7SM FEW039 OVC060 02/01 A2988 RMK AO2 SLP125 60001 T00220011 10039 20017 58007
cycle: 6

Station Type Date Time Source
KROC TAF 2020/12/05 06:42 UTC NOAA

TAF KROC 050540Z 0506/0606 27005KT 5SM BR SCT015 OVC035
FM050900 30005KT P6SM OVC015
FM051600 34009KT P6SM OVC012
FM051800 34010G18KT P6SM OVC012

Example: see airport list